(°C)
(°C)
-2°
-3°
-3°
-3°
-3°
-1°
NNW
NW
NW
NW
NW
NW
NNW
(km/h)
8-19
8-17
8-16
7-16
7-15
6-14
5-16
(mm)
0
0
0
0
0
0
0
(%)
0
0
0
0
0
0
0

Wysokość słońca

/ -30.5°
sun-icon
UV 4
07:13
19:42
Przybywający Księżyc garbaty (161°)
19:38
04:42

METAR dla 51.15°N 51.54°E (UARR)

Czas Warunki Temperatura/
Punkt rosy
Wiatr Widzialność Pogoda Chmury Ciśn. atm. Zmień Surowy
VFR 2°C / -1°C 350º 8kt >10km - Clouds and Visibility OK 1022 No Significant change UARR 182200Z 35004MPS CAVOK 02/M01 Q1022 R04/CLRD70 NOSIG RMK QFE763/1018
VFR 3°C / -1°C 350º 8kt >10km - Clouds and Visibility OK 1022 No Significant change UARR 182100Z 35004MPS CAVOK 03/M01 Q1022 R04/CLRD70 NOSIG RMK QFE763/1018
VFR 3°C / -1°C 350º 6kt >10km - Clouds and Visibility OK 1022 No Significant change UARR 182030Z 35003MPS CAVOK 03/M01 Q1022 R04/CLRD70 NOSIG RMK QFE763/1017
VFR 5°C / -1°C 340º 8kt >10km - Clouds and Visibility OK 1022 No Significant change UARR 182000Z 34004MPS CAVOK 05/M01 Q1022 R04/CLRD70 NOSIG RMK QFE763/1017
VFR 4°C / -1°C 350º 6kt >10km - Clouds and Visibility OK 1021 No Significant change UARR 181930Z 35003MPS CAVOK 04/M01 Q1021 R04/CLRD70 NOSIG RMK QFE763/1017
VFR 6°C / 0°C 10º 10kt >10km - Clouds and Visibility OK 1021 No Significant change UARR 181900Z 01005MPS CAVOK 06/M00 Q1021 R22/CLRD70 NOSIG RMK QFE762/1016
VFR 7°C / -1°C 360º 12kt >10km - Clouds and Visibility OK 1021 No Significant change UARR 181830Z 36006MPS CAVOK 07/M01 Q1021 R22/CLRD70 NOSIG RMK QFE762/1016
VFR 8°C / -1°C 360º 10kt >10km - Clouds and Visibility OK 1021 No Significant change UARR 181800Z 36005MPS CAVOK 08/M01 Q1021 R22/CLRD70 NOSIG RMK QFE762/1016
VFR 7°C / -2°C 340º 8kt >10km - Clouds and Visibility OK 1020 No Significant change UARR 181730Z 34004MPS CAVOK 07/M02 Q1020 R22/CLRD70 NOSIG RMK QFE762/1016
VFR 8°C / -1°C 340º 10kt >10km - Clouds and Visibility OK 1020 No Significant change UARR 181700Z 34005MPS CAVOK 08/M01 Q1020 R22/CLRD70 NOSIG RMK QFE762/1016
VFR 6°C / -2°C 310º 6kt >10km - Clouds and Visibility OK 1020 No Significant change UARR 181630Z 31003MPS CAVOK 06/M02 Q1020 R04/CLRD70 NOSIG RMK QFE761/1015
VFR 8°C / -1°C 300º 6kt >10km - Clouds and Visibility OK 1019 No Significant change UARR 181600Z 30003MPS CAVOK 08/M01 Q1019 R04/CLRD70 NOSIG RMK QFE761/1015
VFR 9°C / -1°C 300º 4kt >10km - Clouds and Visibility OK 1019 No Significant change UARR 181530Z 30002MPS CAVOK 09/M01 Q1019 R04/CLRD70 NOSIG RMK QFE761/1015
VFR 9°C / -2°C 290º 4kt >10km - Clouds and Visibility OK 1019 No Significant change UARR 181500Z 29002MPS CAVOK 09/M02 Q1019 R04/CLRD70 NOSIG RMK QFE761/1015
VFR 11°C / -2°C 280º 6kt >10km - Clouds and Visibility OK 1019 No Significant change UARR 181430Z 28003MPS CAVOK 11/M02 Q1019 R04/CLRD70 NOSIG RMK QFE761/1014
VFR 13°C / -2°C 310º 8kt >10km - Clouds and Visibility OK 1019 No Significant change UARR 181400Z 31004MPS CAVOK 13/M02 Q1019 R04/CLRD70 NOSIG RMK QFE761/1014
VFR 14°C / -2°C 330º variable 300º to 360º 8kt >10km - Clouds and Visibility OK 1019 No Significant change UARR 181330Z 33004MPS 300V360 CAVOK 14/M02 Q1019 R04/CLRD70 NOSIG RMK QFE760/1014
VFR 15°C / -1°C 310º variable 280º to 340º 10kt >10km - Clouds and Visibility OK 1018 No Significant change UARR 181300Z 31005MPS 280V340 CAVOK 15/M01 Q1018 R04/CLRD70 NOSIG RMK QFE760/1014
VFR 15°C / -2°C 330º variable 270º to 350º 10kt >10km - Clouds and Visibility OK 1018 No Significant change UARR 181230Z 33005MPS 270V350 CAVOK 15/M02 Q1018 R04/CLRD70 NOSIG RMK QFE760/1014
VFR 15°C / -2°C 350º 10kt >10km - Clouds and Visibility OK 1018 No Significant change UARR 181200Z 35005MPS CAVOK 15/M02 Q1018 R04/CLRD70 NOSIG RMK QFE760/1014
VFR 14°C / -2°C 340º variable 300º to 010º 10kt >10km - Clouds and Visibility OK 1018 No Significant change UARR 181130Z 34005MPS 300V010 CAVOK 14/M02 Q1018 R04/CLRD70 NOSIG RMK QFE760/1014
VFR 15°C / -2°C 340º variable 290º to 020º 10kt >10km - Clouds and Visibility OK 1018 No Significant change UARR 181100Z 34005MPS 290V020 CAVOK 15/M02 Q1018 R04/CLRD70 NOSIG RMK QFE760/1014
VFR 15°C / -2°C 340º variable 310º to 010º 10kt >10km - Clouds and Visibility OK 1018 No Significant change UARR 181030Z 34005MPS 310V010 CAVOK 15/M02 Q1018 R04/CLRD70 NOSIG RMK QFE760/1014
VFR 14°C / -3°C 310º variable 280º to 350º 12kt >10km - Clouds and Visibility OK 1018 No Significant change UARR 181000Z 31006MPS 280V350 CAVOK 14/M03 Q1018 R04/CLRD70 NOSIG RMK QFE760/1014

VFR

2°C / -1°C

[Więcej]
Wiatr 350º 8kt
Widzialność >10km
Pogoda -
Chmury Clouds and Visibility OK
Ciśn. atm. 1022
Zmień No Significant change
Surowy UARR 182200Z 35004MPS CAVOK 02/M01 Q1022 R04/CLRD70 NOSIG RMK QFE763/1018

VFR

3°C / -1°C

[Więcej]
Wiatr 350º 8kt
Widzialność >10km
Pogoda -
Chmury Clouds and Visibility OK
Ciśn. atm. 1022
Zmień No Significant change
Surowy UARR 182100Z 35004MPS CAVOK 03/M01 Q1022 R04/CLRD70 NOSIG RMK QFE763/1018

VFR

3°C / -1°C

[Więcej]
Wiatr 350º 6kt
Widzialność >10km
Pogoda -
Chmury Clouds and Visibility OK
Ciśn. atm. 1022
Zmień No Significant change
Surowy UARR 182030Z 35003MPS CAVOK 03/M01 Q1022 R04/CLRD70 NOSIG RMK QFE763/1017

VFR

5°C / -1°C

[Więcej]
Wiatr 340º 8kt
Widzialność >10km
Pogoda -
Chmury Clouds and Visibility OK
Ciśn. atm. 1022
Zmień No Significant change
Surowy UARR 182000Z 34004MPS CAVOK 05/M01 Q1022 R04/CLRD70 NOSIG RMK QFE763/1017

VFR

4°C / -1°C

[Więcej]
Wiatr 350º 6kt
Widzialność >10km
Pogoda -
Chmury Clouds and Visibility OK
Ciśn. atm. 1021
Zmień No Significant change
Surowy UARR 181930Z 35003MPS CAVOK 04/M01 Q1021 R04/CLRD70 NOSIG RMK QFE763/1017

VFR

6°C / 0°C

[Więcej]
Wiatr 10º 10kt
Widzialność >10km
Pogoda -
Chmury Clouds and Visibility OK
Ciśn. atm. 1021
Zmień No Significant change
Surowy UARR 181900Z 01005MPS CAVOK 06/M00 Q1021 R22/CLRD70 NOSIG RMK QFE762/1016

VFR

7°C / -1°C

[Więcej]
Wiatr 360º 12kt
Widzialność >10km
Pogoda -
Chmury Clouds and Visibility OK
Ciśn. atm. 1021
Zmień No Significant change
Surowy UARR 181830Z 36006MPS CAVOK 07/M01 Q1021 R22/CLRD70 NOSIG RMK QFE762/1016

VFR

8°C / -1°C

[Więcej]
Wiatr 360º 10kt
Widzialność >10km
Pogoda -
Chmury Clouds and Visibility OK
Ciśn. atm. 1021
Zmień No Significant change
Surowy UARR 181800Z 36005MPS CAVOK 08/M01 Q1021 R22/CLRD70 NOSIG RMK QFE762/1016

VFR

7°C / -2°C

[Więcej]
Wiatr 340º 8kt
Widzialność >10km
Pogoda -
Chmury Clouds and Visibility OK
Ciśn. atm. 1020
Zmień No Significant change
Surowy UARR 181730Z 34004MPS CAVOK 07/M02 Q1020 R22/CLRD70 NOSIG RMK QFE762/1016

VFR

8°C / -1°C

[Więcej]
Wiatr 340º 10kt
Widzialność >10km
Pogoda -
Chmury Clouds and Visibility OK
Ciśn. atm. 1020
Zmień No Significant change
Surowy UARR 181700Z 34005MPS CAVOK 08/M01 Q1020 R22/CLRD70 NOSIG RMK QFE762/1016

VFR

6°C / -2°C

[Więcej]
Wiatr 310º 6kt
Widzialność >10km
Pogoda -
Chmury Clouds and Visibility OK
Ciśn. atm. 1020
Zmień No Significant change
Surowy UARR 181630Z 31003MPS CAVOK 06/M02 Q1020 R04/CLRD70 NOSIG RMK QFE761/1015

VFR

8°C / -1°C

[Więcej]
Wiatr 300º 6kt
Widzialność >10km
Pogoda -
Chmury Clouds and Visibility OK
Ciśn. atm. 1019
Zmień No Significant change
Surowy UARR 181600Z 30003MPS CAVOK 08/M01 Q1019 R04/CLRD70 NOSIG RMK QFE761/1015

VFR

9°C / -1°C

[Więcej]
Wiatr 300º 4kt
Widzialność >10km
Pogoda -
Chmury Clouds and Visibility OK
Ciśn. atm. 1019
Zmień No Significant change
Surowy UARR 181530Z 30002MPS CAVOK 09/M01 Q1019 R04/CLRD70 NOSIG RMK QFE761/1015

VFR

9°C / -2°C

[Więcej]
Wiatr 290º 4kt
Widzialność >10km
Pogoda -
Chmury Clouds and Visibility OK
Ciśn. atm. 1019
Zmień No Significant change
Surowy UARR 181500Z 29002MPS CAVOK 09/M02 Q1019 R04/CLRD70 NOSIG RMK QFE761/1015

VFR

11°C / -2°C

[Więcej]
Wiatr 280º 6kt
Widzialność >10km
Pogoda -
Chmury Clouds and Visibility OK
Ciśn. atm. 1019
Zmień No Significant change
Surowy UARR 181430Z 28003MPS CAVOK 11/M02 Q1019 R04/CLRD70 NOSIG RMK QFE761/1014

VFR

13°C / -2°C

[Więcej]
Wiatr 310º 8kt
Widzialność >10km
Pogoda -
Chmury Clouds and Visibility OK
Ciśn. atm. 1019
Zmień No Significant change
Surowy UARR 181400Z 31004MPS CAVOK 13/M02 Q1019 R04/CLRD70 NOSIG RMK QFE761/1014

VFR

14°C / -2°C

[Więcej]
Wiatr 330º variable 300º to 360º 8kt
Widzialność >10km
Pogoda -
Chmury Clouds and Visibility OK
Ciśn. atm. 1019
Zmień No Significant change
Surowy UARR 181330Z 33004MPS 300V360 CAVOK 14/M02 Q1019 R04/CLRD70 NOSIG RMK QFE760/1014

VFR

15°C / -1°C

[Więcej]
Wiatr 310º variable 280º to 340º 10kt
Widzialność >10km
Pogoda -
Chmury Clouds and Visibility OK
Ciśn. atm. 1018
Zmień No Significant change
Surowy UARR 181300Z 31005MPS 280V340 CAVOK 15/M01 Q1018 R04/CLRD70 NOSIG RMK QFE760/1014

VFR

15°C / -2°C

[Więcej]
Wiatr 330º variable 270º to 350º 10kt
Widzialność >10km
Pogoda -
Chmury Clouds and Visibility OK
Ciśn. atm. 1018
Zmień No Significant change
Surowy UARR 181230Z 33005MPS 270V350 CAVOK 15/M02 Q1018 R04/CLRD70 NOSIG RMK QFE760/1014

VFR

15°C / -2°C

[Więcej]
Wiatr 350º 10kt
Widzialność >10km
Pogoda -
Chmury Clouds and Visibility OK
Ciśn. atm. 1018
Zmień No Significant change
Surowy UARR 181200Z 35005MPS CAVOK 15/M02 Q1018 R04/CLRD70 NOSIG RMK QFE760/1014

VFR

14°C / -2°C

[Więcej]
Wiatr 340º variable 300º to 010º 10kt
Widzialność >10km
Pogoda -
Chmury Clouds and Visibility OK
Ciśn. atm. 1018
Zmień No Significant change
Surowy UARR 181130Z 34005MPS 300V010 CAVOK 14/M02 Q1018 R04/CLRD70 NOSIG RMK QFE760/1014

VFR

15°C / -2°C

[Więcej]
Wiatr 340º variable 290º to 020º 10kt
Widzialność >10km
Pogoda -
Chmury Clouds and Visibility OK
Ciśn. atm. 1018
Zmień No Significant change
Surowy UARR 181100Z 34005MPS 290V020 CAVOK 15/M02 Q1018 R04/CLRD70 NOSIG RMK QFE760/1014

VFR

15°C / -2°C

[Więcej]
Wiatr 340º variable 310º to 010º 10kt
Widzialność >10km
Pogoda -
Chmury Clouds and Visibility OK
Ciśn. atm. 1018
Zmień No Significant change
Surowy UARR 181030Z 34005MPS 310V010 CAVOK 15/M02 Q1018 R04/CLRD70 NOSIG RMK QFE760/1014

VFR

14°C / -3°C

[Więcej]
Wiatr 310º variable 280º to 350º 12kt
Widzialność >10km
Pogoda -
Chmury Clouds and Visibility OK
Ciśn. atm. 1018
Zmień No Significant change
Surowy UARR 181000Z 31006MPS 280V350 CAVOK 14/M03 Q1018 R04/CLRD70 NOSIG RMK QFE760/1014

TAF dla 51.15°N 51.54°E (UARR)

From till


From till Wind 360º 10kt. Visibility 10km or more. Nil Significant Cloud.

Surowy: TAF UARR 182001Z 1821/1906 36005MPS CAVOK

Aktualne zdjęcia satelitarne i zdjęcia opadów deszczu dla 51.15°N 51.54°E

Wskaźnik lokalizacji znajduje się na 51.15°N 51.54°E. [Więcej]

Obraz satelitarny w czasie rzeczywistym łączy światło widzialne w ciągu dnia z promieniowaniem podczerwonym w nocy. W nocy obraz nie jest ciemny, ponieważ promieniowanie podczerwone może wykrywać różnice temperatur. Niestety niskie chmury i mgłę trudno odróżnić od temperatury gruntu, przez co mogą być prawie niewidoczne w nocy. Zdjęcia satelitarne Meteosat dla Europy są aktualizowane w czasie rzeczywistym co 5 minut. Obrazy GOES-16/GOES-17 (Ameryka Północna i Południowa) oraz Himawari (Azja) są aktualizowane co 10 minut.

Prawa autorskie 2021 EUMETSAT / meteoblue. / Prawa autorskie 2021 meteoblue

Radar i prognoza opadów na teraz dla 51.15°N 51.54°E

Mżawka
Lekki
Umiarkowane
Ulewne
Bardzo ciężkie
Grad

Wskaźnik lokalizacji jest umieszczony na 51.15°N 51.54°E. Animacja przedstawia radar opadów dla ostatniej godziny, jak również 1h prognozę pogody. Mżawka lub lekki opad śniegu może być niewidoczny dla radaru. Intensywność opadów jest oznaczona kolorami, od jasnoniebieskiego do pomarańczowego.